sensor_id;sensor_type;location;lat;lon;timestamp;P1;durP1;ratioP1;P2;durP2;ratioP2
49556;SDS011;35462;45.048;7.666;2023-04-23T00:08:17;10.27;;;8.77;;
49556;SDS011;35462;45.048;7.666;2023-04-23T00:23:21;13.40;;;10.00;;
49556;SDS011;35462;45.048;7.666;2023-04-23T00:38:25;13.52;;;10.27;;
49556;SDS011;35462;45.048;7.666;2023-04-23T00:53:29;29.02;;;22.05;;
49556;SDS011;35462;45.048;7.666;2023-04-23T01:08:33;17.00;;;11.65;;
49556;SDS011;35462;45.048;7.666;2023-04-23T01:23:38;9.60;;;8.02;;
49556;SDS011;35462;45.048;7.666;2023-04-23T01:38:43;8.45;;;7.35;;
49556;SDS011;35462;45.048;7.666;2023-04-23T01:53:47;11.02;;;8.63;;
49556;SDS011;35462;45.048;7.666;2023-04-23T02:08:50;11.85;;;7.40;;
49556;SDS011;35462;45.048;7.666;2023-04-23T02:23:54;11.43;;;9.68;;
49556;SDS011;35462;45.048;7.666;2023-04-23T02:38:58;9.50;;;8.48;;
49556;SDS011;35462;45.048;7.666;2023-04-23T02:54:02;10.52;;;8.80;;
49556;SDS011;35462;45.048;7.666;2023-04-23T03:09:06;14.35;;;9.32;;
49556;SDS011;35462;45.048;7.666;2023-04-23T03:24:12;11.48;;;9.45;;
49556;SDS011;35462;45.048;7.666;2023-04-23T03:39:17;13.63;;;9.45;;
49556;SDS011;35462;45.048;7.666;2023-04-23T03:54:26;16.95;;;11.45;;
49556;SDS011;35462;45.048;7.666;2023-04-23T04:09:40;11.82;;;9.25;;
49556;SDS011;35462;45.048;7.666;2023-04-23T04:24:44;13.32;;;9.23;;
49556;SDS011;35462;45.048;7.666;2023-04-23T04:39:49;12.70;;;9.40;;
49556;SDS011;35462;45.048;7.666;2023-04-23T04:54:53;13.77;;;9.95;;
49556;SDS011;35462;45.048;7.666;2023-04-23T05:09:57;12.20;;;9.00;;
49556;SDS011;35462;45.048;7.666;2023-04-23T05:25:01;13.30;;;10.50;;
49556;SDS011;35462;45.048;7.666;2023-04-23T05:40:05;15.27;;;10.90;;
49556;SDS011;35462;45.048;7.666;2023-04-23T05:55:10;17.33;;;11.77;;
49556;SDS011;35462;45.048;7.666;2023-04-23T06:10:14;15.48;;;11.88;;
49556;SDS011;35462;45.048;7.666;2023-04-23T06:25:17;25.65;;;13.35;;
49556;SDS011;35462;45.048;7.666;2023-04-23T06:40:21;28.17;;;14.25;;
49556;SDS011;35462;45.048;7.666;2023-04-23T06:55:25;18.13;;;15.98;;
49556;SDS011;35462;45.048;7.666;2023-04-23T07:10:31;17.52;;;15.07;;
49556;SDS011;35462;45.048;7.666;2023-04-23T07:25:35;16.00;;;12.85;;
49556;SDS011;35462;45.048;7.666;2023-04-23T07:40:39;13.82;;;11.38;;
49556;SDS011;35462;45.048;7.666;2023-04-23T07:55:43;19.50;;;11.70;;
49556;SDS011;35462;45.048;7.666;2023-04-23T08:10:47;14.82;;;12.35;;
49556;SDS011;35462;45.048;7.666;2023-04-23T08:25:50;16.30;;;13.75;;
49556;SDS011;35462;45.048;7.666;2023-04-23T08:40:55;11.70;;;10.02;;
49556;SDS011;35462;45.048;7.666;2023-04-23T08:56:00;12.02;;;9.10;;
49556;SDS011;35462;45.048;7.666;2023-04-23T09:11:05;10.05;;;7.90;;
49556;SDS011;35462;45.048;7.666;2023-04-23T09:26:10;9.85;;;5.80;;
49556;SDS011;35462;45.048;7.666;2023-04-23T09:41:24;7.75;;;6.13;;
49556;SDS011;35462;45.048;7.666;2023-04-23T10:11:34;7.90;;;5.75;;
49556;SDS011;35462;45.048;7.666;2023-04-23T10:26:41;9.82;;;5.68;;
49556;SDS011;35462;45.048;7.666;2023-04-23T10:41:45;9.93;;;8.40;;
49556;SDS011;35462;45.048;7.666;2023-04-23T10:56:56;11.13;;;9.90;;
49556;SDS011;35462;45.048;7.666;2023-04-23T11:12:03;13.90;;;11.88;;
49556;SDS011;35462;45.048;7.666;2023-04-23T11:27:10;15.88;;;13.35;;
49556;SDS011;35462;45.048;7.666;2023-04-23T11:42:16;12.27;;;10.27;;
49556;SDS011;35462;45.048;7.666;2023-04-23T11:57:22;15.27;;;7.77;;
49556;SDS011;35462;45.048;7.666;2023-04-23T12:27:38;11.65;;;6.78;;
49556;SDS011;35462;45.048;7.666;2023-04-23T12:42:43;8.73;;;7.17;;
49556;SDS011;35462;45.048;7.666;2023-04-23T12:57:47;7.82;;;6.32;;
49556;SDS011;35462;45.048;7.666;2023-04-23T13:12:51;6.00;;;4.78;;
49556;SDS011;35462;45.048;7.666;2023-04-23T13:27:55;5.53;;;4.38;;
49556;SDS011;35462;45.048;7.666;2023-04-23T13:42:59;5.15;;;4.00;;
49556;SDS011;35462;45.048;7.666;2023-04-23T13:58:03;7.45;;;4.43;;
49556;SDS011;35462;45.048;7.666;2023-04-23T14:13:08;5.07;;;4.18;;
49556;SDS011;35462;45.048;7.666;2023-04-23T14:43:26;6.63;;;4.95;;
49556;SDS011;35462;45.048;7.666;2023-04-23T14:58:30;5.93;;;4.88;;
49556;SDS011;35462;45.048;7.666;2023-04-23T15:28:41;13.17;;;5.83;;
49556;SDS011;35462;45.048;7.666;2023-04-23T15:43:45;6.28;;;5.22;;
49556;SDS011;35462;45.048;7.666;2023-04-23T15:58:51;8.80;;;6.32;;
49556;SDS011;35462;45.048;7.666;2023-04-23T16:13:55;9.00;;;6.15;;
49556;SDS011;35462;45.048;7.666;2023-04-23T16:28:59;7.30;;;5.53;;
49556;SDS011;35462;45.048;7.666;2023-04-23T16:44:03;7.40;;;4.90;;
49556;SDS011;35462;45.048;7.666;2023-04-23T16:59:07;7.90;;;5.68;;
49556;SDS011;35462;45.048;7.666;2023-04-23T17:14:11;9.35;;;6.22;;
49556;SDS011;35462;45.048;7.666;2023-04-23T17:29:15;8.40;;;5.43;;
49556;SDS011;35462;45.048;7.666;2023-04-23T17:44:19;6.85;;;5.18;;
49556;SDS011;35462;45.048;7.666;2023-04-23T17:59:23;8.18;;;6.10;;
49556;SDS011;35462;45.048;7.666;2023-04-23T18:14:27;9.07;;;5.90;;
49556;SDS011;35462;45.048;7.666;2023-04-23T18:29:31;12.35;;;7.13;;
49556;SDS011;35462;45.048;7.666;2023-04-23T18:44:35;7.13;;;5.70;;
49556;SDS011;35462;45.048;7.666;2023-04-23T18:59:39;7.47;;;5.88;;
49556;SDS011;35462;45.048;7.666;2023-04-23T19:14:43;8.85;;;6.18;;
49556;SDS011;35462;45.048;7.666;2023-04-23T19:29:47;12.35;;;9.32;;
49556;SDS011;35462;45.048;7.666;2023-04-23T19:44:51;9.30;;;5.63;;
49556;SDS011;35462;45.048;7.666;2023-04-23T19:59:55;8.43;;;5.25;;
49556;SDS011;35462;45.048;7.666;2023-04-23T20:14:59;8.52;;;5.50;;
49556;SDS011;35462;45.048;7.666;2023-04-23T20:30:04;14.25;;;9.30;;
49556;SDS011;35462;45.048;7.666;2023-04-23T20:45:10;7.55;;;5.45;;
49556;SDS011;35462;45.048;7.666;2023-04-23T21:00:15;9.35;;;5.63;;
49556;SDS011;35462;45.048;7.666;2023-04-23T21:15:19;7.93;;;4.68;;
49556;SDS011;35462;45.048;7.666;2023-04-23T21:30:27;23.55;;;15.27;;
49556;SDS011;35462;45.048;7.666;2023-04-23T21:45:33;5.90;;;4.30;;
49556;SDS011;35462;45.048;7.666;2023-04-23T22:00:37;8.73;;;4.70;;
49556;SDS011;35462;45.048;7.666;2023-04-23T22:15:41;5.93;;;4.05;;
49556;SDS011;35462;45.048;7.666;2023-04-23T22:30:46;6.05;;;4.15;;
49556;SDS011;35462;45.048;7.666;2023-04-23T22:45:50;5.25;;;3.97;;
49556;SDS011;35462;45.048;7.666;2023-04-23T23:00:54;6.18;;;4.65;;
49556;SDS011;35462;45.048;7.666;2023-04-23T23:15:58;6.20;;;5.03;;
49556;SDS011;35462;45.048;7.666;2023-04-23T23:31:06;8.60;;;4.80;;
49556;SDS011;35462;45.048;7.666;2023-04-23T23:46:11;8.82;;;6.40;;
